createdAt,value
2023-05-14T00:00:20.332Z,8.48
2023-05-14T00:04:24.840Z,8.75
2023-05-14T00:08:28.277Z,8.63
2023-05-14T00:12:33.405Z,9.32
2023-05-14T00:16:36.740Z,8.27
2023-05-14T00:20:44.969Z,9.23
2023-05-14T00:24:52.297Z,8.25
2023-05-14T00:28:55.973Z,8.90
2023-05-14T00:33:02.216Z,9.00
2023-05-14T00:37:09.335Z,9.07
2023-05-14T00:41:12.386Z,8.60
2023-05-14T00:45:15.471Z,8.32
2023-05-14T00:49:21.800Z,8.10
2023-05-14T00:53:26.374Z,8.48
2023-05-14T00:57:29.414Z,8.07
2023-05-14T01:01:39.450Z,8.38
2023-05-14T01:05:54.970Z,7.95
2023-05-14T01:10:07.385Z,8.45
2023-05-14T01:14:24.506Z,8.60
2023-05-14T01:18:30.907Z,9.30
2023-05-14T01:22:35.318Z,9.05
2023-05-14T01:26:41.142Z,8.68
2023-05-14T01:30:49.367Z,8.88
2023-05-14T01:34:57.914Z,8.30
2023-05-14T01:39:09.695Z,8.05
2023-05-14T01:43:12.934Z,8.27
2023-05-14T01:47:18.890Z,8.75
2023-05-14T01:51:23.183Z,8.43
2023-05-14T01:55:32.192Z,9.27
2023-05-14T01:59:36.769Z,8.18
2023-05-14T02:03:40.937Z,7.93
2023-05-14T02:07:47.113Z,8.27
2023-05-14T02:11:54.087Z,8.07
2023-05-14T02:15:57.126Z,8.70
2023-05-14T02:20:03.868Z,7.80
2023-05-14T02:24:09.326Z,8.18
2023-05-14T02:28:13.824Z,8.60
2023-05-14T02:32:18.287Z,8.27
2023-05-14T02:36:24.341Z,7.65
2023-05-14T02:40:34.663Z,9.20
2023-05-14T02:44:39.157Z,8.15
2023-05-14T02:48:45.292Z,9.80
2023-05-14T02:52:48.432Z,8.43
2023-05-14T02:56:53.176Z,8.55
2023-05-14T03:05:17.628Z,9.10
2023-05-14T03:09:20.916Z,9.55
2023-05-14T03:13:28.677Z,9.57
2023-05-14T03:17:32.338Z,9.50
2023-05-14T03:21:36.884Z,10.18
2023-05-14T03:25:45.178Z,9.52
2023-05-14T03:29:48.424Z,10.40
2023-05-14T03:33:52.083Z,10.68
2023-05-14T03:37:59.360Z,10.25
2023-05-14T03:42:02.649Z,10.13
2023-05-14T03:46:05.874Z,9.52
2023-05-14T03:50:12.793Z,11.00
2023-05-14T03:54:17.465Z,9.90
2023-05-14T03:58:20.478Z,9.55
2023-05-14T04:02:28.340Z,9.27
2023-05-14T04:06:31.671Z,11.40
2023-05-14T04:10:36.251Z,9.93
2023-05-14T04:14:43.558Z,9.80
2023-05-14T04:18:48.567Z,9.93
2023-05-14T04:22:51.894Z,10.57
2023-05-14T04:26:58.785Z,10.02
2023-05-14T04:31:02.027Z,9.98
2023-05-14T04:35:06.017Z,10.55
2023-05-14T04:39:10.069Z,10.88
2023-05-14T04:43:15.970Z,10.70
2023-05-14T04:47:22.298Z,11.43
2023-05-14T04:51:31.731Z,9.85
2023-05-14T04:55:34.759Z,10.27
2023-05-14T04:59:40.999Z,9.45
2023-05-14T05:03:44.033Z,9.25
2023-05-14T05:07:47.283Z,9.23
2023-05-14T05:11:51.491Z,9.07
2023-05-14T05:15:57.236Z,8.57
2023-05-14T05:20:04.889Z,9.45
2023-05-14T05:24:09.594Z,8.80
2023-05-14T05:28:17.282Z,9.27
2023-05-14T05:32:24.738Z,8.63
2023-05-14T05:36:28.804Z,8.70
2023-05-14T05:40:41.436Z,8.82
2023-05-14T05:44:44.449Z,8.52
2023-05-14T05:48:53.633Z,8.35
2023-05-14T05:52:56.900Z,8.40
2023-05-14T05:57:05.326Z,8.32
2023-05-14T06:01:08.638Z,8.18
2023-05-14T06:05:13.385Z,7.80
2023-05-14T06:09:18.725Z,8.23
2023-05-14T06:13:21.735Z,8.00
2023-05-14T06:17:27.204Z,7.43
2023-05-14T06:21:31.630Z,8.00
2023-05-14T06:25:36.089Z,8.05
2023-05-14T06:29:40.476Z,8.10
2023-05-14T06:33:43.690Z,7.88
2023-05-14T06:37:48.149Z,8.32
2023-05-14T06:41:54.094Z,7.85
2023-05-14T06:45:57.496Z,7.75
2023-05-14T06:50:02.012Z,6.97
2023-05-14T06:54:08.250Z,7.28
2023-05-14T06:58:11.285Z,7.22
2023-05-14T07:02:14.261Z,7.22
2023-05-14T07:06:19.475Z,7.18
2023-05-14T07:10:26.432Z,6.72
2023-05-14T07:14:29.817Z,6.30
2023-05-14T07:18:32.906Z,6.40
2023-05-14T07:22:37.081Z,6.03
2023-05-14T07:26:42.149Z,6.93
2023-05-14T07:30:46.368Z,6.32
2023-05-14T07:39:02.259Z,5.25
2023-05-14T07:43:09.611Z,5.80
2023-05-14T07:47:12.653Z,6.00
2023-05-14T07:51:16.840Z,5.30
2023-05-14T07:55:20.076Z,5.28
2023-05-14T07:59:26.826Z,4.57
2023-05-14T08:03:34.361Z,5.45
2023-05-14T08:07:37.757Z,4.93
2023-05-14T08:11:42.498Z,3.72
2023-05-14T08:15:48.607Z,4.00
2023-05-14T08:19:59.047Z,4.80
2023-05-14T08:24:02.086Z,4.22
2023-05-14T08:28:05.521Z,3.83
2023-05-14T08:32:22.585Z,4.22
2023-05-14T08:36:26.948Z,4.32
2023-05-14T08:40:31.347Z,4.30
2023-05-14T08:44:40.942Z,3.88
2023-05-14T08:48:52.594Z,3.55
2023-05-14T08:52:55.699Z,3.38
2023-05-14T08:56:59.138Z,3.67
2023-05-14T09:01:04.788Z,4.40
2023-05-14T09:05:12.534Z,3.90
2023-05-14T09:09:18.618Z,4.40
2023-05-14T09:13:21.701Z,3.70
2023-05-14T09:17:27.502Z,4.38
2023-05-14T09:21:33.519Z,4.35
2023-05-14T09:25:36.944Z,3.42
2023-05-14T09:29:39.942Z,3.50
2023-05-14T09:33:43.253Z,3.03
2023-05-14T09:37:49.522Z,3.35
2023-05-14T09:41:53.288Z,3.67
2023-05-14T09:45:58.703Z,3.25
2023-05-14T09:50:03.804Z,3.20
2023-05-14T09:54:09.894Z,2.90
2023-05-14T09:58:14.420Z,2.80
2023-05-14T10:02:24.734Z,2.88
2023-05-14T10:06:31.958Z,2.63
2023-05-14T10:10:38.734Z,2.63
2023-05-14T10:14:46.114Z,2.30
2023-05-14T10:18:57.166Z,2.60
2023-05-14T10:23:03.618Z,3.40
2023-05-14T10:27:09.633Z,3.90
2023-05-14T10:31:13.910Z,3.53
2023-05-14T10:35:20.386Z,3.35
2023-05-14T10:39:25.203Z,3.33
2023-05-14T10:43:33.216Z,3.03
2023-05-14T10:47:38.154Z,3.30
2023-05-14T10:51:42.174Z,2.90
2023-05-14T10:55:46.143Z,3.08
2023-05-14T10:59:53.430Z,3.10
2023-05-14T11:04:07.603Z,3.08
2023-05-14T11:08:14.374Z,2.53
2023-05-14T11:12:18.221Z,2.95
2023-05-14T11:16:24.942Z,2.83
2023-05-14T11:20:29.360Z,2.72
2023-05-14T11:24:34.181Z,3.05
2023-05-14T11:28:41.367Z,2.70
2023-05-14T11:32:52.055Z,3.00
2023-05-14T11:36:55.115Z,3.35
2023-05-14T11:41:04.997Z,3.08
2023-05-14T11:45:14.759Z,2.97
2023-05-14T11:49:26.017Z,3.20
2023-05-14T11:53:34.728Z,3.40
2023-05-14T11:57:39.322Z,2.95
2023-05-14T12:01:50.652Z,3.15
2023-05-14T12:05:59.057Z,2.33
2023-05-14T12:10:05.884Z,2.80
2023-05-14T12:14:17.579Z,2.40
2023-05-14T12:18:28.001Z,2.45
2023-05-14T12:22:32.458Z,3.05
2023-05-14T12:26:38.620Z,2.80
2023-05-14T12:30:42.171Z,2.80
2023-05-14T12:34:47.450Z,2.78
2023-05-14T12:39:02.338Z,3.28
2023-05-14T12:43:09.576Z,2.92
2023-05-14T12:47:12.631Z,3.10
2023-05-14T12:51:15.904Z,2.83
2023-05-14T12:55:20.408Z,3.10
2023-05-14T12:59:23.434Z,2.80
2023-05-14T13:03:29.489Z,3.20
2023-05-14T13:07:38.958Z,2.95
2023-05-14T13:11:49.166Z,3.70
2023-05-14T13:15:55.640Z,3.25
2023-05-14T13:19:58.983Z,3.47
2023-05-14T13:24:03.561Z,3.72
2023-05-14T13:28:10.063Z,3.45
2023-05-14T13:32:13.100Z,4.03
2023-05-14T13:36:18.214Z,4.05
2023-05-14T13:40:22.656Z,3.60
2023-05-14T13:44:27.069Z,4.40
2023-05-14T13:48:34.560Z,4.15
2023-05-14T13:52:40.276Z,4.38
2023-05-14T13:56:43.601Z,4.50
2023-05-14T14:00:48.010Z,4.40
2023-05-14T14:04:54.441Z,4.20
2023-05-14T14:08:57.426Z,4.60
2023-05-14T14:13:01.770Z,4.70
2023-05-14T14:17:09.141Z,4.38
2023-05-14T14:21:18.030Z,4.45
2023-05-14T14:25:21.730Z,4.47
2023-05-14T14:29:27.700Z,5.05
2023-05-14T14:33:34.476Z,5.32
2023-05-14T14:37:37.811Z,3.80
2023-05-14T14:41:44.558Z,2.47
2023-05-14T14:45:49.225Z,2.78
2023-05-14T14:49:56.763Z,3.08
2023-05-14T14:53:59.783Z,2.63
2023-05-14T14:58:03.072Z,2.65
2023-05-14T15:02:06.525Z,2.63
2023-05-14T15:06:11.294Z,2.55
2023-05-14T15:10:14.426Z,2.40
2023-05-14T15:14:23.090Z,2.67
2023-05-14T15:18:30.068Z,2.60
2023-05-14T15:22:35.841Z,2.10
2023-05-14T15:26:40.752Z,2.80
2023-05-14T15:30:43.758Z,2.83
2023-05-14T15:34:46.707Z,2.53
2023-05-14T15:38:54.934Z,2.85
2023-05-14T15:43:03.278Z,2.38
2023-05-14T15:47:07.261Z,3.10
2023-05-14T15:51:11.842Z,3.38
2023-05-14T15:55:20.723Z,3.03
2023-05-14T15:59:24.663Z,2.83
2023-05-14T16:03:31.918Z,2.58
2023-05-14T16:07:37.450Z,3.75
2023-05-14T16:11:41.888Z,2.95
2023-05-14T16:15:45.082Z,4.38
2023-05-14T16:19:53.457Z,4.13
2023-05-14T16:24:01.562Z,3.30
2023-05-14T16:28:14.235Z,2.95
2023-05-14T16:32:17.411Z,2.78
2023-05-14T16:36:20.590Z,2.90
2023-05-14T16:40:24.147Z,2.85
2023-05-14T16:44:30.574Z,2.75
2023-05-14T16:48:33.660Z,2.40
2023-05-14T16:52:38.284Z,2.40
2023-05-14T16:56:48.322Z,2.42
2023-05-14T17:00:54.026Z,2.15
2023-05-14T17:05:00.299Z,2.30
2023-05-14T17:09:07.152Z,2.50
2023-05-14T17:13:10.292Z,2.90
2023-05-14T17:17:14.680Z,3.08
2023-05-14T17:21:17.816Z,6.90
2023-05-14T17:25:23.781Z,4.07
2023-05-14T17:29:29.326Z,4.90
2023-05-14T17:33:33.795Z,5.05
2023-05-14T17:37:44.841Z,3.60
2023-05-14T17:41:47.836Z,3.67
2023-05-14T17:45:54.440Z,3.15
2023-05-14T17:49:59.908Z,3.13
2023-05-14T17:54:02.870Z,3.30
2023-05-14T17:58:08.556Z,7.05
2023-05-14T18:02:14.791Z,3.40
2023-05-14T18:06:19.335Z,3.60
2023-05-14T18:10:22.413Z,3.63
2023-05-14T18:14:25.497Z,3.30
2023-05-14T18:18:34.177Z,3.70
2023-05-14T18:22:38.596Z,4.00
2023-05-14T18:26:42.086Z,5.90
2023-05-14T18:30:47.274Z,4.72
2023-05-14T18:34:51.916Z,4.40
2023-05-14T18:38:56.334Z,3.97
2023-05-14T18:42:59.845Z,3.70
2023-05-14T18:47:08.256Z,3.65
2023-05-14T18:51:12.444Z,3.80
2023-05-14T18:55:18.617Z,3.63
2023-05-14T18:59:21.687Z,15.30
2023-05-14T19:03:28.362Z,5.65
2023-05-14T19:07:35.180Z,6.70
2023-05-14T19:11:39.588Z,4.15
2023-05-14T19:15:42.730Z,4.90
2023-05-14T19:19:46.288Z,4.55
2023-05-14T19:23:49.325Z,3.97
2023-05-14T19:27:55.302Z,4.50
2023-05-14T19:31:58.640Z,4.82
2023-05-14T19:36:04.482Z,5.10
2023-05-14T19:40:09.059Z,5.00
2023-05-14T19:44:13.661Z,4.43
2023-05-14T19:48:21.296Z,4.00
2023-05-14T19:52:25.332Z,4.30
2023-05-14T19:56:31.629Z,7.00
2023-05-14T20:00:41.795Z,7.18
2023-05-14T20:04:46.214Z,4.70
2023-05-14T20:08:49.556Z,4.63
2023-05-14T20:12:55.144Z,5.15
2023-05-14T20:17:02.659Z,5.32
2023-05-14T20:21:07.482Z,5.28
2023-05-14T20:25:16.549Z,5.07
2023-05-14T20:29:19.549Z,5.03
2023-05-14T20:33:24.103Z,5.35
2023-05-14T20:37:27.717Z,6.03
2023-05-14T20:41:31.373Z,5.50
2023-05-14T20:45:34.473Z,5.10
2023-05-14T20:49:40.900Z,5.07
2023-05-14T20:53:43.887Z,5.28
2023-05-14T20:57:50.743Z,5.45
2023-05-14T21:01:53.923Z,5.45
2023-05-14T21:05:58.423Z,5.10
2023-05-14T21:10:01.900Z,4.65
2023-05-14T21:14:04.919Z,4.90
2023-05-14T21:18:08.070Z,5.07
2023-05-14T21:22:14.520Z,4.78
2023-05-14T21:26:22.296Z,5.50
2023-05-14T21:30:25.538Z,4.75
2023-05-14T21:34:29.808Z,4.43
2023-05-14T21:38:40.991Z,4.57
2023-05-14T21:42:44.416Z,4.32
2023-05-14T21:46:48.182Z,4.50
2023-05-14T21:50:51.180Z,4.53
2023-05-14T21:54:57.416Z,4.20
2023-05-14T21:59:00.694Z,4.32
2023-05-14T22:03:06.144Z,4.20
2023-05-14T22:07:13.429Z,3.75
2023-05-14T22:11:19.870Z,4.03
2023-05-14T22:15:23.093Z,3.92
2023-05-14T22:19:26.897Z,3.85
2023-05-14T22:23:29.915Z,3.72
2023-05-14T22:27:37.361Z,4.00
2023-05-14T22:31:40.518Z,3.72
2023-05-14T22:35:44.051Z,3.70
2023-05-14T22:39:47.057Z,3.60
2023-05-14T22:43:52.608Z,4.03
2023-05-14T22:47:55.681Z,3.50
2023-05-14T22:52:07.992Z,4.10
2023-05-14T22:56:13.558Z,3.60
2023-05-14T23:00:18.813Z,4.32
2023-05-14T23:04:26.887Z,4.15
2023-05-14T23:08:29.921Z,4.45
2023-05-14T23:12:35.426Z,4.20
2023-05-14T23:16:44.839Z,4.20
2023-05-14T23:20:52.127Z,3.92
2023-05-14T23:24:55.669Z,3.75
2023-05-14T23:28:58.639Z,3.65
2023-05-14T23:33:03.335Z,3.92
2023-05-14T23:37:06.699Z,3.97
2023-05-14T23:41:10.154Z,4.15
2023-05-14T23:45:16.325Z,4.97
2023-05-14T23:49:23.775Z,4.78
2023-05-14T23:53:26.849Z,4.03
2023-05-14T23:57:29.882Z,4.28
